Flight Track Log - Related Links

Times and Time Zones

All times are in EST time to prevent confusion due to time zone crossing. See the LAN932 flight status page for this flight to view local times or setup timezone preferences in your user account.

Time Position Orientation Groundspeed Altitude Reporting Facility
EST Latitude Longitude Course Direction KTS MPH feet Rate Location/Type
Sun 02:05:04 PM -33.3977 -70.8025 301° West 157 181 2,300  Level FlightAware ADS-B
Sun 02:05:25 PM -33.4143 -70.8018 178° South 181 208 2,800 1,463 Climbing FlightAware ADS-B
Sun 02:05:45 PM -33.4325 -70.8004 176° South 216 249 3,300 1,692 Climbing FlightAware ADS-B
Sun 02:06:04 PM -33.4537 -70.7989 176° South 248 285 3,900 2,368 Climbing FlightAware ADS-B
Sun 02:06:23 PM -33.4764 -70.7975 177° South 268 308 4,800 3,294 Climbing FlightAware ADS-B
Sun 02:06:55 PM -33.5181 -70.7952 177° South 280 322 6,700 3,579 Climbing FlightAware ADS-B
Sun 02:07:20 PM -33.5526 -70.7934 177° South 292 336 8,200 2,835 Climbing FlightAware ADS-B
Sun 02:08:26 PM -33.6469 -70.7876 177° South 344 396 11,000 2,563 Climbing FlightAware ADS-B
Sun 02:09:03 PM -33.7090 -70.7837 177° South 366 421 12,600 2,912 Climbing FlightAware ADS-B
Sun 02:09:34 PM -33.7613 -70.7738 171° South 372 428 14,300 3,000 Climbing FlightAware ADS-B
Sun 02:09:45 PM -33.7757 -70.7633 149° Southeast 376 433 14,700 2,609 Climbing FlightAware ADS-B
Sun 02:09:57 PM -33.7854 -70.7525 137° Southeast 379 436 15,300 3,000 Climbing FlightAware ADS-B
Sun 02:10:07 PM -33.7989 -70.7269 123° Southeast 380 437 15,800 2,842 Climbing FlightAware ADS-B
Sun 02:10:16 PM -33.8039 -70.7073 107° East 383 441 16,200 2,400 Climbing FlightAware ADS-B
Sun 02:10:27 PM -33.8053 -70.6867 95° East 386 444 16,600 2,760 Climbing FlightAware ADS-B
Sun 02:11:06 PM -33.7966 -70.5999 83° East 388 447 18,500 2,914 Climbing FlightAware ADS-B
Sun 02:11:37 PM -33.7892 -70.5342 82° East 389 448 20,000 2,028 Climbing FlightAware ADS-B
Sun 02:12:17 PM -33.7803 -70.4471 83° East 417 480 20,900 1,775 Climbing FlightAware ADS-B
Sun 02:12:48 PM -33.7731 -70.3766 83° East 421 484 22,100 2,400 Climbing FlightAware ADS-B
Sun 02:13:27 PM -33.7638 -70.2852 83° East 422 486 23,700 2,200 Climbing FlightAware ADS-B
Sun 02:13:48 PM -33.7646 -70.2341 91° East 428 493 24,300 2,164 Climbing FlightAware ADS-B
Sun 02:14:28 PM -33.7749 -70.1387 97° East 425 489 25,900 2,366 Climbing FlightAware ADS-B
Sun 02:14:59 PM -33.7824 -70.0677 97° East 423 487 27,100 2,314 Climbing FlightAware ADS-B
Sun 02:15:38 PM -33.7914 -69.9806 97° East 419 482 28,600 1,443 Climbing FlightAware ADS-B
Sun 02:16:18 PM -33.8015 -69.8836 97° East 416 479 29,000 338 Climbing FlightAware ADS-B
Sun 02:16:49 PM -33.8067 -69.8316 97° East 418 481 29,000  Level FlightAware ADS-B
Sun 02:17:24 PM -33.8162 -69.7355 97° East 423 487 29,000 -1,029 Level FlightAware ADS-B
Sun 02:17:59 PM -33.8240 -69.6542 97° East 431 496 27,800 -1,054 Descending FlightAware ADS-B
Sun 02:18:38 PM -33.8270 -69.6300 98° East 425 489 27,700 -79 Descending FlightAware ADS-B
Sun 02:19:15 PM -33.8350 -69.5560 97° East 425 489 27,700 -2,354 Level FlightAware ADS-B
Sun 02:22:00 PM -33.7275 -69.4732 33° Northeast  Level Estimated
Sun 02:23:00 PM -33.6884 -69.4431 33° Northeast  Level Estimated
Sun 02:24:00 PM -33.6493 -69.4131 33° Northeast  Level Estimated
Sun 02:25:00 PM -33.6101 -69.3831 33° Northeast  Level Estimated
Sun 02:26:00 PM -33.5710 -69.3531 33° Northeast  Level Estimated
Sun 02:27:00 PM -33.5319 -69.3232 33° Northeast  Level Estimated
Sun 02:27:51 PM -33.1610 -68.8860 33° Northeast 228 262 6,000  Level FlightAware ADS-B
Sun 02:28:00 PM -33.4927 -69.2933 33° Northeast  Level Estimated
Sun 02:28:30 PM -33.1320 -68.8580 39° Northeast 200 230 6,000  Level FlightAware ADS-B
Sun 02:29:06 PM -33.1100 -68.8380 37° Northeast 192 221 6,000  Level FlightAware ADS-B
Sun 02:29:35 PM -33.0850 -68.8150 38° Northeast 191 220 6,000  Level FlightAware ADS-B
Sun 02:30:01 PM -33.0700 -68.8000 40° Northeast 196 226 6,000 -471 Level FlightAware ADS-B
Sun 02:30:26 PM -33.0440 -68.7950 North 206 237 5,600 -1,091 Descending FlightAware ADS-B
Sun 02:30:56 PM -33.0140 -68.7960 358° North 206 237 5,000 -711 Descending FlightAware ADS-B
Sun 02:31:42 PM -32.9750 -68.7950 North 178 205 4,700 -525 Descending FlightAware ADS-B
Sun 02:32:16 PM -32.9500 -68.7950 360° North 143 165 4,300 -667 Descending FlightAware ADS-B
Sun 02:32:36 PM -32.9380 -68.7940 North 132 152 4,100 -643 Descending FlightAware ADS-B
Sun 02:33:12 PM -32.9160 -68.7940 360° North 132 152 3,700 -727 Descending FlightAware ADS-B
Sun 02:33:42 PM -32.8970 -68.7940 360° North 137 158 3,300 -720 Descending FlightAware ADS-B
Sun 02:34:27 PM -32.8690 -68.7930 North 134 154 2,800 -609 Descending FlightAware ADS-B
Sun 02:34:51 PM -32.8540 -68.7930 360° North 137 158 2,600 -500 Descending FlightAware ADS-B
Sun 02:35:27 PM -32.8340 -68.7930 360° North 120 138 -4,333 Descending FlightAware ADS-B

Login

Don't have an account? Register now (free) for customized features, flight alerts, and more!